Time;durP1;ratioP1;P1;durP2;ratioP2;P2;SDS_P1;SDS_P2;PMS_P1;PMS_P2;Temp;Humidity;BMP_temperature;BMP_pressure;BME280_temperature;BME280_humidity;BME280_pressure;Samples;Min_cycle;Max_cycle;Signal;HPM_P1;HPM_P2
2021/01/22 00:00:32;;;;;;;35.88;18.48;;;9.00;99.90;;;;;;5082677;28;20032;-61
2021/01/22 00:02:58;;;;;;;43.67;19.90;;;9.00;99.90;;;;;;5074164;28;20489;-62
2021/01/22 00:05:23;;;;;;;36.60;19.90;;;8.90;99.90;;;;;;5080844;28;20169;-61
2021/01/22 00:07:49;;;;;;;40.47;20.20;;;9.00;99.90;;;;;;5075208;28;20060;-62
2021/01/22 00:10:14;;;;;;;45.45;20.08;;;8.90;99.90;;;;;;5083379;28;20035;-61
2021/01/22 00:12:40;;;;;;;36.60;19.38;;;8.90;99.90;;;;;;5076512;28;20033;-61
2021/01/22 00:15:07;;;;;;;32.67;19.80;;;8.90;99.90;;;;;;5078300;28;20024;-62
2021/01/22 00:17:32;;;;;;;39.53;19.60;;;8.80;99.90;;;;;;5077324;28;20047;-61
2021/01/22 00:19:58;;;;;;;42.33;20.10;;;8.80;99.90;;;;;;5075936;28;20496;-62
2021/01/22 00:22:24;;;;;;;34.85;18.20;;;8.90;99.90;;;;;;5078416;28;20079;-64
2021/01/22 00:24:49;;;;;;;36.58;19.02;;;8.80;99.90;;;;;;5075851;28;20040;-62
2021/01/22 00:27:15;;;;;;;32.42;18.98;;;8.70;99.90;;;;;;5079604;28;20092;-61
2021/01/22 00:29:40;;;;;;;42.08;19.38;;;8.80;99.90;;;;;;5074485;28;20112;-62
2021/01/22 00:32:06;;;;;;;42.03;18.27;;;8.70;99.90;;;;;;5080792;28;20052;-64
2021/01/22 00:34:32;;;;;;;44.72;20.73;;;8.60;99.90;;;;;;5074220;28;20070;-62
2021/01/22 00:36:57;;;;;;;33.10;19.00;;;8.70;99.90;;;;;;5080912;28;20099;-62
2021/01/22 00:39:23;;;;;;;35.75;16.77;;;8.60;99.90;;;;;;5074260;28;20036;-62
2021/01/22 00:41:49;;;;;;;35.00;18.40;;;8.70;99.90;;;;;;5080772;28;20031;-63
2021/01/22 00:44:15;;;;;;;42.90;19.05;;;8.70;99.90;;;;;;5073983;28;20055;-61
2021/01/22 00:46:40;;;;;;;33.78;18.42;;;8.70;99.90;;;;;;5080496;28;20404;-61
2021/01/22 00:49:06;;;;;;;37.90;17.42;;;8.70;99.90;;;;;;5073894;28;20032;-62
2021/01/22 00:51:31;;;;;;;34.42;18.17;;;8.70;99.90;;;;;;5080602;28;20024;-62
2021/01/22 00:53:57;;;;;;;31.63;17.27;;;8.60;99.90;;;;;;5072476;28;20088;-62
2021/01/22 00:56:23;;;;;;;28.85;16.73;;;8.50;99.90;;;;;;5081753;28;20106;-61
2021/01/22 00:58:48;;;;;;;30.55;16.40;;;8.50;99.90;;;;;;5071721;28;20037;-61
2021/01/22 01:01:14;;;;;;;37.75;17.27;;;8.40;99.90;;;;;;5092639;28;20500;-61
2021/01/22 01:03:40;;;;;;;30.05;16.13;;;8.50;99.90;;;;;;5091085;28;20090;-62
2021/01/22 01:06:05;;;;;;;41.30;16.88;;;8.60;99.90;;;;;;5082563;28;20053;-62
2021/01/22 01:08:31;;;;;;;29.33;16.58;;;8.60;99.90;;;;;;5074460;28;20400;-62
2021/01/22 01:10:57;;;;;;;27.98;15.75;;;8.60;99.90;;;;;;5083395;28;20024;-62
2021/01/22 01:13:22;;;;;;;32.22;16.00;;;8.50;99.90;;;;;;5071357;28;20750;-63
2021/01/22 01:15:48;;;;;;;31.80;16.08;;;8.50;99.90;;;;;;5082485;28;20091;-62
2021/01/22 01:18:13;;;;;;;23.67;14.73;;;8.40;99.90;;;;;;5071131;28;20115;-62
2021/01/22 01:20:39;;;;;;;24.70;13.88;;;8.40;99.90;;;;;;5081453;28;20055;-61
2021/01/22 01:23:10;;;;;;;27.63;14.02;;;8.60;99.90;;;;;;5071694;28;20025;-62
2021/01/22 01:25:36;;;;;;;24.20;13.77;;;8.60;99.90;;;;;;5081099;28;20020;-62
2021/01/22 01:28:02;;;;;;;21.63;13.57;;;8.60;99.90;;;;;;5071977;28;20039;-61
2021/01/22 01:30:27;;;;;;;22.92;12.43;;;8.60;99.90;;;;;;5079588;28;20036;-61
2021/01/22 01:32:53;;;;;;;26.42;14.18;;;8.60;99.90;;;;;;5072955;28;20068;-61
2021/01/22 01:35:18;;;;;;;27.23;13.30;;;8.60;99.90;;;;;;5078224;28;20020;-61
2021/01/22 01:37:44;;;;;;;25.85;12.70;;;8.60;99.90;;;;;;5074325;28;20069;-61
2021/01/22 01:40:10;;;;;;;32.08;13.52;;;8.70;99.90;;;;;;5076908;28;20028;-61
2021/01/22 01:42:36;;;;;;;24.00;12.07;;;8.80;99.90;;;;;;5069283;28;20069;-61
2021/01/22 01:45:02;;;;;;;25.15;13.23;;;8.70;99.90;;;;;;5075733;28;20513;-61
2021/01/22 01:47:27;;;;;;;23.65;12.55;;;8.60;99.90;;;;;;5076575;28;20377;-61
2021/01/22 01:49:53;;;;;;;21.08;12.13;;;8.70;99.90;;;;;;5074382;28;20051;-61
2021/01/22 01:52:19;;;;;;;28.10;12.77;;;8.60;99.90;;;;;;5077721;28;20480;-61
2021/01/22 01:54:45;;;;;;;26.58;12.63;;;8.70;99.90;;;;;;5073389;28;20036;-61
2021/01/22 01:57:11;;;;;;;27.00;12.48;;;8.60;99.90;;;;;;5078741;28;20012;-62
2021/01/22 01:59:37;;;;;;;15.40;12.32;;;8.50;99.90;;;;;;5072858;28;20051;-63
2021/01/22 02:02:03;;;;;;;21.23;12.35;;;8.60;99.90;;;;;;5079252;28;20480;-61
2021/01/22 02:04:29;;;;;;;27.60;13.57;;;8.60;99.90;;;;;;5072681;28;20492;-62
2021/01/22 02:06:54;;;;;;;29.50;13.48;;;8.50;99.90;;;;;;5079226;28;20034;-62
2021/01/22 02:09:20;;;;;;;24.45;13.52;;;8.50;99.90;;;;;;5076585;28;20036;-62
2021/01/22 02:11:46;;;;;;;31.00;13.95;;;8.60;99.90;;;;;;5079374;28;20054;-61
2021/01/22 02:14:12;;;;;;;25.15;13.13;;;8.50;99.90;;;;;;5072743;28;20029;-62
2021/01/22 02:16:38;;;;;;;29.58;14.73;;;8.50;99.90;;;;;;5077300;28;20024;-64
2021/01/22 02:19:08;;;;;;;26.75;15.55;;;8.40;99.90;;;;;;5088350;28;20115;-61
2021/01/22 02:21:35;;;;;;;28.50;15.40;;;8.50;99.90;;;;;;5078955;28;20016;-62
2021/01/22 02:24:13;;;;;;;33.42;15.52;;;8.50;99.90;;;;;;5071509;28;20024;-61
2021/01/22 02:27:04;;;;;;;31.90;15.50;;;8.40;99.90;;;;;;5078819;28;20107;-62
2021/01/22 02:29:33;;;;;;;30.55;15.05;;;8.50;99.90;;;;;;5072702;28;20036;-62
2021/01/22 02:32:04;;;;;;;31.33;15.18;;;8.40;99.90;;;;;;5078857;28;20012;-61
2021/01/22 02:34:34;;;;;;;35.70;14.93;;;8.50;99.90;;;;;;5072280;28;20665;-61
2021/01/22 02:37:02;;;;;;;29.73;16.00;;;8.60;99.90;;;;;;5078686;28;20009;-62
2021/01/22 02:39:36;;;;;;;32.50;16.58;;;8.40;99.90;;;;;;5072361;28;20036;-62
2021/01/22 02:42:03;;;;;;;35.38;17.83;;;8.20;99.90;;;;;;5068530;28;20021;-61
2021/01/22 02:44:30;;;;;;;36.50;17.50;;;8.20;99.90;;;;;;5074943;28;20032;-62
2021/01/22 02:46:58;;;;;;;31.55;17.77;;;8.10;99.90;;;;;;5082719;28;20107;-62
2021/01/22 02:49:24;;;;;;;41.70;18.40;;;8.20;99.90;;;;;;5076326;28;20419;-62
2021/01/22 02:51:50;;;;;;;40.38;18.10;;;8.20;99.90;;;;;;5082797;28;20021;-63
2021/01/22 02:54:15;;;;;;;34.22;18.13;;;8.10;99.90;;;;;;5076239;28;20042;-62
2021/01/22 02:56:56;;;;;;;35.45;18.75;;;8.10;99.90;;;;;;5082622;28;20024;-62
2021/01/22 02:59:43;;;;;;;35.80;19.00;;;8.10;99.90;;;;;;5058257;28;20073;-61
2021/01/22 03:02:14;;;;;;;34.53;18.23;;;8.20;99.90;;;;;;5085175;28;20099;-62
2021/01/22 03:04:41;;;;;;;38.08;19.50;;;8.10;99.90;;;;;;5087656;28;20032;-62
2021/01/22 03:07:10;;;;;;;30.77;18.50;;;8.10;99.90;;;;;;5082604;28;20141;-62
2021/01/22 03:09:40;;;;;;;37.40;19.08;;;8.00;99.90;;;;;;5080028;28;20119;-62
2021/01/22 03:12:07;;;;;;;36.13;19.58;;;8.10;99.90;;;;;;5082419;28;20013;-62
2021/01/22 03:14:34;;;;;;;41.00;20.08;;;8.00;99.90;;;;;;5075941;28;20055;-62
2021/01/22 03:17:00;;;;;;;41.75;20.27;;;8.00;99.90;;;;;;5082168;28;20016;-62
2021/01/22 03:19:25;;;;;;;31.55;19.75;;;7.90;99.90;;;;;;5075704;28;20036;-62
2021/01/22 03:21:51;;;;;;;38.13;19.83;;;8.10;99.90;;;;;;5082141;28;20499;-63
2021/01/22 03:24:17;;;;;;;34.67;19.65;;;8.00;99.90;;;;;;5075828;28;20024;-62
2021/01/22 03:26:42;;;;;;;28.77;19.20;;;7.90;99.90;;;;;;5082112;28;20039;-61
2021/01/22 03:29:08;;;;;;;29.40;16.40;;;8.00;99.90;;;;;;5075347;28;20029;-61
2021/01/22 03:31:34;;;;;;;32.08;15.95;;;8.40;99.90;;;;;;5082314;28;20036;-62
2021/01/22 03:34:00;;;;;;;28.23;17.02;;;8.60;99.90;;;;;;5073945;28;22289;-62
2021/01/22 03:36:25;;;;;;;32.22;17.25;;;8.50;99.90;;;;;;5083343;28;20028;-62
2021/01/22 03:38:51;;;;;;;25.10;16.27;;;8.20;99.90;;;;;;5073369;28;20078;-62
2021/01/22 03:41:17;;;;;;;29.23;16.58;;;8.20;99.90;;;;;;5083871;28;20025;-62
2021/01/22 03:43:42;;;;;;;31.73;17.08;;;8.30;99.90;;;;;;5073010;28;20017;-62
2021/01/22 03:46:08;;;;;;;26.13;15.95;;;8.20;99.90;;;;;;5084187;28;20048;-61
2021/01/22 03:48:34;;;;;;;25.35;16.15;;;8.30;99.90;;;;;;5072960;28;20102;-62
2021/01/22 03:50:59;;;;;;;31.27;16.23;;;8.30;99.90;;;;;;5083912;28;20027;-61
2021/01/22 03:53:25;;;;;;;27.65;15.32;;;8.10;99.90;;;;;;5054879;28;20119;-63
2021/01/22 03:55:51;;;;;;;23.95;14.88;;;8.10;99.90;;;;;;5083828;28;20105;-64
2021/01/22 03:58:17;;;;;;;27.48;13.93;;;8.20;99.90;;;;;;5072737;28;20042;-61
2021/01/22 04:00:43;;;;;;;17.23;13.75;;;8.30;99.90;;;;;;5083051;28;20085;-62
2021/01/22 04:03:09;;;;;;;24.77;13.50;;;8.40;99.90;;;;;;5071396;28;20472;-61
2021/01/22 04:05:34;;;;;;;22.67;13.20;;;8.50;99.90;;;;;;5081732;28;20024;-62
2021/01/22 04:08:00;;;;;;;22.42;12.82;;;8.40;99.90;;;;;;5074419;28;20111;-62
2021/01/22 04:10:26;;;;;;;19.60;13.57;;;8.50;99.90;;;;;;5084885;28;20551;-62
2021/01/22 04:12:51;;;;;;;19.60;12.32;;;8.60;99.90;;;;;;5075396;28;20512;-61
2021/01/22 04:15:17;;;;;;;24.08;13.10;;;8.60;99.90;;;;;;5079376;28;20020;-61
2021/01/22 04:17:43;;;;;;;25.58;13.40;;;8.40;99.90;;;;;;5076480;28;20103;-62
2021/01/22 04:20:09;;;;;;;26.00;13.88;;;8.50;99.90;;;;;;5077801;28;20119;-62
2021/01/22 04:22:34;;;;;;;23.98;12.60;;;8.50;99.90;;;;;;5077701;28;20070;-62
2021/01/22 04:25:00;;;;;;;23.42;13.45;;;8.50;99.90;;;;;;5076892;28;20028;-62
2021/01/22 04:27:26;;;;;;;23.88;14.70;;;8.40;99.90;;;;;;5078842;28;20027;-61
2021/01/22 04:29:51;;;;;;;26.38;14.43;;;8.60;99.90;;;;;;5075430;28;20028;-62
2021/01/22 04:32:17;;;;;;;24.15;15.18;;;8.50;99.90;;;;;;5079838;28;20115;-61
2021/01/22 04:34:43;;;;;;;29.83;17.20;;;8.50;99.90;;;;;;5074273;28;20064;-62
2021/01/22 04:37:08;;;;;;;29.52;16.10;;;8.40;99.90;;;;;;5080727;28;20401;-61
2021/01/22 04:39:35;;;;;;;24.40;15.60;;;8.50;99.90;;;;;;5074271;28;20040;-62
2021/01/22 04:42:02;;;;;;;24.98;15.95;;;8.30;99.90;;;;;;5080733;28;20017;-61
2021/01/22 04:44:28;;;;;;;26.75;16.45;;;8.50;99.90;;;;;;5073998;28;20036;-62
2021/01/22 04:46:54;;;;;;;34.35;17.10;;;8.40;99.90;;;;;;5080342;28;20059;-62
2021/01/22 04:49:20;;;;;;;31.52;16.05;;;8.30;99.90;;;;;;5074123;28;20157;-62
2021/01/22 04:51:49;;;;;;;26.25;16.25;;;8.40;99.90;;;;;;5080475;28;20485;-61
2021/01/22 04:54:42;;;;;;;27.65;15.60;;;8.30;99.90;;;;;;5074225;28;20066;-62
2021/01/22 04:57:09;;;;;;;26.13;14.57;;;8.10;99.90;;;;;;5077923;28;20385;-61
2021/01/22 04:59:51;;;;;;;27.23;14.18;;;8.20;99.90;;;;;;5073913;28;20477;-62
2021/01/22 05:02:21;;;;;;;18.98;12.82;;;8.30;99.90;;;;;;5083677;28;20541;-61
2021/01/22 05:04:47;;;;;;;32.72;15.27;;;8.30;99.90;;;;;;5084985;28;20553;-62
2021/01/22 05:07:13;;;;;;;24.23;15.40;;;8.20;99.90;;;;;;5079176;28;20096;-62
2021/01/22 05:09:40;;;;;;;19.45;12.77;;;8.40;99.90;;;;;;5069283;28;20032;-61
2021/01/22 05:12:07;;;;;;;24.45;12.70;;;8.40;99.90;;;;;;5080054;28;20602;-62
2021/01/22 05:14:36;;;;;;;29.42;13.82;;;8.40;99.90;;;;;;5073592;28;20043;-62
2021/01/22 05:17:03;;;;;;;18.42;12.00;;;8.30;99.90;;;;;;5079768;28;20021;-62
2021/01/22 05:19:29;;;;;;;19.17;12.43;;;8.40;99.90;;;;;;5073394;28;20040;-62
2021/01/22 05:21:55;;;;;;;21.15;11.82;;;8.40;99.90;;;;;;5079800;28;20027;-62
2021/01/22 05:24:26;;;;;;;24.98;13.90;;;8.60;99.90;;;;;;5073539;28;20040;-62
2021/01/22 05:27:06;;;;;;;18.73;12.25;;;8.50;99.90;;;;;;5079995;28;20023;-61
2021/01/22 05:29:37;;;;;;;23.95;11.90;;;8.50;99.90;;;;;;5073249;28;20127;-62
2021/01/22 05:32:22;;;;;;;23.73;11.73;;;8.60;99.90;;;;;;5079782;28;20024;-62
2021/01/22 05:34:48;;;;;;;18.23;11.23;;;8.50;99.90;;;;;;5073189;28;20032;-63
2021/01/22 05:37:14;;;;;;;21.42;11.38;;;8.50;99.90;;;;;;5079226;28;20066;-62
2021/01/22 05:39:39;;;;;;;22.52;11.65;;;8.60;99.90;;;;;;5073187;28;20036;-61
2021/01/22 05:42:07;;;;;;;22.55;11.63;;;8.50;99.90;;;;;;5079488;28;20056;-62
2021/01/22 05:44:33;;;;;;;24.30;11.48;;;8.40;99.90;;;;;;5072892;28;20044;-61
2021/01/22 05:46:59;;;;;;;21.70;12.20;;;8.50;99.90;;;;;;5079506;28;20028;-62
2021/01/22 05:49:25;;;;;;;21.17;12.38;;;8.40;99.90;;;;;;5072966;28;20032;-62
2021/01/22 05:51:51;;;;;;;20.27;11.98;;;8.60;99.90;;;;;;5079358;28;20113;-62
2021/01/22 05:54:37;;;;;;;21.85;11.00;;;8.50;99.90;;;;;;5077710;28;20021;-62
2021/01/22 05:57:04;;;;;;;22.73;11.90;;;8.50;99.90;;;;;;5070497;28;20028;-61
2021/01/22 05:59:30;;;;;;;23.63;10.95;;;8.60;99.90;;;;;;5087678;28;20032;-62
2021/01/22 06:01:56;;;;;;;22.50;11.18;;;8.50;99.90;;;;;;5090122;28;20085;-61
2021/01/22 06:04:22;;;;;;;18.00;11.60;;;8.60;99.90;;;;;;5087526;28;20032;-62
2021/01/22 06:06:50;;;;;;;26.45;12.40;;;8.60;99.90;;;;;;5083397;28;20024;-62
2021/01/22 06:09:32;;;;;;;20.05;11.02;;;8.60;99.90;;;;;;5088237;28;20122;-61
2021/01/22 06:12:01;;;;;;;20.55;12.05;;;8.60;99.90;;;;;;5084654;28;20020;-61
2021/01/22 06:14:33;;;;;;;22.77;11.95;;;8.70;99.90;;;;;;5089129;28;20036;-61
2021/01/22 06:17:03;;;;;;;28.17;12.35;;;8.50;99.90;;;;;;5089355;28;20499;-60
2021/01/22 06:19:33;;;;;;;25.45;12.50;;;8.60;99.90;;;;;;5093871;28;20047;-61
2021/01/22 06:22:08;;;;;;;23.83;12.55;;;8.50;99.90;;;;;;5089652;28;20016;-61
2021/01/22 06:24:35;;;;;;;21.63;11.95;;;8.60;99.90;;;;;;5087236;28;20039;-61
2021/01/22 06:27:01;;;;;;;21.63;12.10;;;8.60;99.90;;;;;;5089745;28;20020;-60
2021/01/22 06:29:29;;;;;;;19.08;12.00;;;8.60;99.90;;;;;;5087244;28;20029;-63
2021/01/22 06:31:56;;;;;;;22.25;11.55;;;8.60;99.90;;;;;;5087202;28;20103;-61
2021/01/22 06:34:24;;;;;;;22.70;12.25;;;8.50;99.90;;;;;;5087249;28;20423;-61
2021/01/22 06:36:51;;;;;;;20.58;12.70;;;8.50;99.90;;;;;;5087128;28;20024;-62
2021/01/22 06:39:18;;;;;;;20.40;12.95;;;8.40;99.90;;;;;;5087490;28;20086;-65
2021/01/22 06:41:45;;;;;;;23.27;11.98;;;8.40;99.90;;;;;;5082711;28;20025;-62
2021/01/22 06:44:12;;;;;;;19.48;12.20;;;8.50;99.90;;;;;;5084255;28;20972;-61
2021/01/22 06:46:37;;;;;;;21.77;13.45;;;8.30;99.90;;;;;;5080762;28;20031;-62
2021/01/22 06:49:05;;;;;;;24.40;13.50;;;8.30;99.90;;;;;;5088167;28;20032;-62
2021/01/22 06:51:36;;;;;;;25.25;14.13;;;8.40;99.90;;;;;;5079798;28;20440;-62
2021/01/22 06:54:11;;;;;;;25.05;14.18;;;8.30;99.90;;;;;;5070474;28;20025;-62
2021/01/22 06:56:47;;;;;;;26.08;14.23;;;8.30;99.90;;;;;;5068623;28;20107;-62
2021/01/22 06:59:18;;;;;;;26.45;13.88;;;8.40;99.90;;;;;;5071781;28;20504;-63
2021/01/22 07:01:45;;;;;;;24.70;13.75;;;8.30;99.90;;;;;;5078643;28;20107;-62
2021/01/22 07:04:31;;;;;;;27.90;13.52;;;8.40;99.90;;;;;;5073733;28;20024;-62
2021/01/22 07:07:01;;;;;;;25.63;13.07;;;8.40;99.90;;;;;;5089020;28;20031;-62
2021/01/22 07:09:46;;;;;;;27.95;14.05;;;8.50;99.90;;;;;;5085774;28;20101;-61
2021/01/22 07:12:16;;;;;;;19.98;12.57;;;8.40;99.90;;;;;;5089360;28;20102;-61
2021/01/22 07:14:45;;;;;;;23.88;12.80;;;8.50;99.90;;;;;;5084118;28;21367;-61
2021/01/22 07:17:25;;;;;;;21.17;12.68;;;8.50;99.90;;;;;;5088715;28;20078;-62
2021/01/22 07:20:00;;;;;;;17.92;12.05;;;8.60;99.90;;;;;;5084648;28;20046;-61
2021/01/22 07:22:28;;;;;;;22.27;11.60;;;8.40;99.90;;;;;;5071077;28;20395;-61
2021/01/22 07:24:56;;;;;;;22.27;12.43;;;8.50;99.90;;;;;;5091936;28;20030;-61
2021/01/22 07:27:22;;;;;;;20.98;11.57;;;8.60;99.90;;;;;;5086292;28;20115;-63
2021/01/22 07:30:06;;;;;;;25.27;14.55;;;8.80;99.90;;;;;;5083450;28;20099;-64
2021/01/22 07:32:32;;;;;;;20.05;13.43;;;8.70;99.90;;;;;;5086859;28;20067;-62
2021/01/22 07:34:59;;;;;;;13.27;11.30;;;8.60;99.90;;;;;;5086740;28;20457;-62
2021/01/22 07:37:26;;;;;;;21.08;13.18;;;8.70;99.90;;;;;;5079875;28;20024;-62
2021/01/22 07:39:54;;;;;;;17.80;12.25;;;8.40;99.90;;;;;;5075843;28;20443;-63
2021/01/22 07:42:26;;;;;;;15.05;9.88;;;8.30;99.90;;;;;;5080800;28;20411;-62
2021/01/22 07:44:53;;;;;;;16.83;9.43;;;8.20;99.90;;;;;;5083952;28;20067;-62
2021/01/22 07:47:32;;;;;;;14.63;10.50;;;8.20;99.90;;;;;;5091707;28;20512;-62
2021/01/22 07:50:00;;;;;;;17.88;11.73;;;8.10;99.90;;;;;;5088418;28;20111;-62
2021/01/22 07:52:27;;;;;;;16.33;12.50;;;8.10;99.90;;;;;;5092117;28;20024;-62
2021/01/22 07:54:53;;;;;;;18.98;11.45;;;7.90;99.90;;;;;;5090070;28;20034;-63
2021/01/22 07:57:26;;;;;;;19.95;11.63;;;8.00;99.90;;;;;;5080404;28;20059;-62
2021/01/22 07:59:53;;;;;;;16.02;11.00;;;8.00;99.90;;;;;;5084687;28;20063;-61
2021/01/22 08:02:23;;;;;;;15.77;11.13;;;8.00;99.90;;;;;;5092063;28;20383;-61
2021/01/22 08:04:56;;;;;;;11.73;8.45;;;8.10;99.90;;;;;;5086739;28;20073;-63
2021/01/22 08:07:31;;;;;;;12.32;8.10;;;8.00;99.90;;;;;;5091277;28;20077;-62
2021/01/22 08:09:57;;;;;;;12.23;8.05;;;8.00;99.90;;;;;;5085710;28;20025;-63
2021/01/22 08:12:22;;;;;;;9.20;7.68;;;8.00;99.90;;;;;;5080014;28;20048;-63
2021/01/22 08:14:48;;;;;;;10.02;7.50;;;7.90;99.90;;;;;;5074512;28;20028;-62
2021/01/22 08:17:14;;;;;;;8.55;7.70;;;8.00;99.90;;;;;;5092137;28;20028;-62
2021/01/22 08:19:40;;;;;;;9.27;7.22;;;8.00;99.90;;;;;;5082261;28;20037;-62
2021/01/22 08:22:06;;;;;;;8.80;7.60;;;8.00;99.90;;;;;;5090667;28;20052;-62
2021/01/22 08:24:32;;;;;;;8.27;7.50;;;8.00;99.90;;;;;;5090004;28;20066;-62
2021/01/22 08:27:03;;;;;;;8.10;6.97;;;8.10;99.90;;;;;;5091482;28;20380;-62
2021/01/22 08:29:30;;;;;;;7.53;6.82;;;8.00;99.90;;;;;;5088180;28;20081;-62
2021/01/22 08:31:56;;;;;;;10.13;6.40;;;8.00;99.90;;;;;;5086382;28;20040;-62
2021/01/22 08:34:24;;;;;;;8.48;6.85;;;8.00;99.90;;;;;;5088641;28;20027;-60
2021/01/22 08:36:51;;;;;;;9.30;7.47;;;8.10;99.90;;;;;;5085019;28;20043;-60
2021/01/22 08:39:17;;;;;;;9.30;6.80;;;7.90;99.90;;;;;;5089528;28;20091;-60
2021/01/22 08:41:43;;;;;;;7.90;7.20;;;8.10;99.90;;;;;;5081776;28;20164;-60
2021/01/22 08:44:09;;;;;;;8.13;7.20;;;8.20;99.90;;;;;;5087056;28;20095;-60
2021/01/22 08:46:46;;;;;;;8.07;7.28;;;8.20;99.90;;;;;;5084144;28;20028;-60
2021/01/22 08:49:13;;;;;;;11.85;6.97;;;8.20;99.90;;;;;;5086480;28;20527;-60
2021/01/22 08:51:39;;;;;;;8.82;7.93;;;8.20;99.90;;;;;;5080510;28;20062;-62
2021/01/22 08:54:05;;;;;;;11.75;10.65;;;8.00;99.90;;;;;;5084323;28;20027;-63
2021/01/22 08:56:31;;;;;;;14.18;8.93;;;8.00;99.90;;;;;;5081554;28;20024;-62
2021/01/22 08:59:12;;;;;;;7.05;5.20;;;8.20;99.90;;;;;;5071596;28;20421;-62
2021/01/22 09:01:49;;;;;;;6.05;5.53;;;10.60;99.90;;;;;;5089761;28;20063;-61
2021/01/22 09:04:28;;;;;;;8.90;6.65;;;11.70;99.90;;;;;;5086327;28;20106;-61
2021/01/22 09:06:56;;;;;;;13.15;9.93;;;12.20;99.90;;;;;;5090964;28;20020;-60
2021/01/22 09:09:42;;;;;;;13.02;10.40;;;10.40;99.90;;;;;;5088457;28;20031;-59
2021/01/22 09:12:11;;;;;;;8.13;7.13;;;9.10;99.90;;;;;;5090162;28;20089;-59
2021/01/22 09:14:52;;;;;;;5.82;5.28;;;8.70;99.90;;;;;;5088240;28;20073;-59
2021/01/22 09:17:24;;;;;;;6.28;3.97;;;8.50;99.90;;;;;;5087988;28;20056;-60
2021/01/22 09:20:23;;;;;;;5.25;2.70;;;8.50;99.90;;;;;;5088557;28;20109;-60
2021/01/22 09:22:54;;;;;;;3.03;1.63;;;8.40;99.90;;;;;;5070244;28;20576;-63
2021/01/22 09:25:26;;;;;;;3.22;1.75;;;8.50;99.90;;;;;;5084291;28;20118;-62
2021/01/22 09:27:52;;;;;;;2.47;1.20;;;8.40;99.90;;;;;;5090806;28;20072;-63
2021/01/22 09:30:23;;;;;;;2.15;1.23;;;8.60;99.90;;;;;;5084328;28;20480;-63
2021/01/22 09:32:51;;;;;;;1.40;0.90;;;8.40;99.90;;;;;;5074992;28;20036;-61
2021/01/22 09:35:18;;;;;;;1.05;0.75;;;8.60;99.90;;;;;;5086074;28;20107;-60
2021/01/22 09:37:43;;;;;;;3.28;0.80;;;8.50;99.90;;;;;;5089600;28;20460;-61
2021/01/22 09:40:10;;;;;;;2.15;1.25;;;8.60;99.90;;;;;;5083933;28;20068;-60
2021/01/22 09:42:36;;;;;;;2.85;1.40;;;8.60;99.90;;;;;;5077048;28;20055;-61
2021/01/22 09:45:03;;;;;;;3.35;2.20;;;8.40;99.90;;;;;;5083394;28;20416;-61
2021/01/22 09:47:29;;;;;;;3.58;2.92;;;8.50;99.90;;;;;;5090043;28;20032;-61
2021/01/22 09:49:55;;;;;;;4.63;2.40;;;8.70;99.90;;;;;;5083963;28;20603;-61
2021/01/22 09:52:21;;;;;;;1.42;1.33;;;8.60;99.90;;;;;;5078282;28;20020;-61
2021/01/22 09:54:47;;;;;;;1.77;1.15;;;8.50;99.90;;;;;;5074724;28;20048;-61
2021/01/22 09:57:13;;;;;;;4.45;1.25;;;8.60;99.90;;;;;;5084619;28;20039;-61
2021/01/22 09:59:39;;;;;;;2.00;1.10;;;8.60;99.90;;;;;;5085912;28;20044;-60
2021/01/22 10:02:04;;;;;;;1.58;0.98;;;8.60;99.90;;;;;;5089203;28;20111;-61
2021/01/22 10:04:30;;;;;;;2.53;1.63;;;8.60;99.90;;;;;;5085928;28;20047;-61
2021/01/22 10:06:56;;;;;;;5.28;2.30;;;8.60;99.90;;;;;;5087383;28;20051;-61
2021/01/22 10:09:22;;;;;;;7.13;3.13;;;8.70;99.90;;;;;;5087719;28;20481;-61
2021/01/22 10:11:48;;;;;;;5.45;4.55;;;8.60;99.90;;;;;;5078763;28;20031;-61
2021/01/22 10:14:13;;;;;;;6.88;5.40;;;8.60;99.90;;;;;;5071676;28;20097;-61
2021/01/22 10:16:39;;;;;;;9.48;6.43;;;8.70;99.90;;;;;;5088138;28;20035;-60
2021/01/22 10:19:05;;;;;;;7.20;5.15;;;8.70;99.90;;;;;;5087481;28;20032;-60
2021/01/22 10:21:31;;;;;;;6.75;3.40;;;8.70;99.90;;;;;;5089299;28;20028;-60
2021/01/22 10:23:57;;;;;;;5.95;3.78;;;8.70;99.90;;;;;;5085377;28;20024;-61
2021/01/22 10:26:23;;;;;;;6.43;3.58;;;8.70;99.90;;;;;;5070290;28;20381;-60
2021/01/22 10:28:50;;;;;;;4.00;2.47;;;8.70;99.90;;;;;;5088348;28;20509;-60
2021/01/22 10:31:16;;;;;;;5.25;2.03;;;8.60;99.90;;;;;;5088731;28;20036;-60
2021/01/22 10:33:43;;;;;;;4.80;1.88;;;8.70;99.90;;;;;;5086328;28;20116;-59
2021/01/22 10:36:09;;;;;;;3.85;2.20;;;8.80;99.90;;;;;;5088118;28;20081;-60
2021/01/22 10:38:35;;;;;;;3.92;1.92;;;8.90;99.90;;;;;;5088310;28;20028;-61
2021/01/22 10:41:01;;;;;;;2.22;1.25;;;8.90;99.90;;;;;;5069679;28;20484;-62
2021/01/22 10:43:28;;;;;;;3.05;1.85;;;8.90;99.90;;;;;;5084185;28;20024;-62
2021/01/22 10:45:54;;;;;;;6.43;1.63;;;8.90;99.90;;;;;;5087330;28;20520;-62
2021/01/22 10:48:20;;;;;;;3.80;2.03;;;8.90;99.90;;;;;;5088867;28;20048;-63
2021/01/22 10:50:46;;;;;;;3.20;2.10;;;8.90;99.90;;;;;;5086618;28;20060;-63
2021/01/22 10:53:13;;;;;;;2.75;1.70;;;9.00;99.90;;;;;;5071179;28;20372;-63
2021/01/22 10:55:39;;;;;;;4.35;1.10;;;8.90;99.90;;;;;;5087233;28;20472;-62
2021/01/22 10:58:04;;;;;;;2.42;1.08;;;8.90;99.90;;;;;;5088362;28;20034;-63
2021/01/22 11:00:32;;;;;;;2.60;1.27;;;8.90;99.90;;;;;;5087091;28;20028;-63
2021/01/22 11:02:59;;;;;;;2.28;1.15;;;8.90;99.90;;;;;;5088937;28;20099;-63
2021/01/22 11:05:24;;;;;;;1.83;1.20;;;9.00;99.90;;;;;;5089309;28;20036;-62
2021/01/22 11:07:50;;;;;;;3.08;1.02;;;8.90;99.90;;;;;;5093655;28;20027;-64
2021/01/22 11:10:16;;;;;;;5.18;0.90;;;8.80;99.90;;;;;;5087144;28;20182;-63
2021/01/22 11:12:42;;;;;;;1.67;1.20;;;8.90;99.90;;;;;;5078822;28;20416;-63
2021/01/22 11:15:08;;;;;;;2.05;0.90;;;8.90;99.90;;;;;;5077748;28;20036;-62
2021/01/22 11:17:33;;;;;;;4.43;1.02;;;9.00;99.90;;;;;;5079511;28;20082;-63
2021/01/22 11:20:03;;;;;;;3.38;1.10;;;8.80;99.90;;;;;;5076413;28;20508;-64
2021/01/22 11:22:30;;;;;;;1.67;0.82;;;8.90;99.90;;;;;;5084712;28;20016;-60
2021/01/22 11:24:57;;;;;;;1.58;0.70;;;9.00;99.90;;;;;;5091833;28;20103;-63
2021/01/22 11:27:22;;;;;;;7.28;1.13;;;9.00;99.90;;;;;;5081282;28;20021;-62
2021/01/22 11:29:48;;;;;;;1.73;0.82;;;8.90;99.90;;;;;;5075202;28;20055;-63
2021/01/22 11:32:14;;;;;;;1.77;0.68;;;8.90;99.90;;;;;;5081777;28;20047;-63
2021/01/22 11:34:40;;;;;;;2.67;1.20;;;9.00;99.90;;;;;;5075143;28;20020;-64
2021/01/22 11:37:06;;;;;;;3.60;0.85;;;9.00;99.90;;;;;;5081706;28;20028;-63
2021/01/22 11:39:35;;;;;;;1.02;0.60;;;8.90;99.90;;;;;;5088109;28;20032;-63
2021/01/22 11:42:04;;;;;;;1.50;0.52;;;8.90;99.90;;;;;;5090023;28;20034;-63
2021/01/22 11:44:30;;;;;;;1.88;0.60;;;9.00;99.90;;;;;;5089781;28;20041;-61
2021/01/22 11:46:56;;;;;;;0.68;0.52;;;8.90;99.90;;;;;;5098216;28;20024;-61
2021/01/22 11:49:22;;;;;;;2.13;0.75;;;9.00;99.90;;;;;;5090770;28;20020;-62
2021/01/22 11:51:47;;;;;;;1.35;0.70;;;8.70;99.90;;;;;;5092042;28;20031;-58
2021/01/22 11:54:13;;;;;;;0.90;0.70;;;8.70;99.90;;;;;;5091569;28;20058;-62
2021/01/22 11:56:38;;;;;;;1.65;0.90;;;8.80;99.90;;;;;;5084752;28;20099;-62
2021/01/22 11:59:04;;;;;;;1.83;1.13;;;8.70;99.90;;;;;;5090484;28;20032;-63
2021/01/22 12:01:30;;;;;;;1.17;0.60;;;8.70;99.90;;;;;;5083401;28;20024;-62
2021/01/22 12:03:55;;;;;;;1.70;0.77;;;8.70;99.90;;;;;;5091315;28;20024;-59
2021/01/22 12:06:21;;;;;;;1.17;0.70;;;8.90;99.90;;;;;;5087960;28;20404;-63
2021/01/22 12:08:48;;;;;;;1.35;0.90;;;8.80;99.90;;;;;;5077823;28;20024;-60
2021/01/22 12:11:13;;;;;;;0.68;0.50;;;8.70;99.90;;;;;;5083708;28;20028;-62
2021/01/22 12:13:39;;;;;;;0.75;0.50;;;8.90;99.90;;;;;;5072208;28;20070;-63
2021/01/22 12:16:05;;;;;;;1.85;0.52;;;9.00;99.90;;;;;;5085051;28;20035;-62
2021/01/22 12:18:30;;;;;;;0.60;0.45;;;8.90;99.90;;;;;;5091463;28;20043;-62
2021/01/22 12:20:56;;;;;;;0.82;0.50;;;8.80;99.90;;;;;;5087487;28;20022;-61
2021/01/22 12:23:22;;;;;;;1.35;0.70;;;9.00;99.90;;;;;;5093551;28;20437;-62
2021/01/22 12:25:47;;;;;;;0.70;0.60;;;8.90;99.90;;;;;;5085248;28;20038;-63
2021/01/22 12:28:16;;;;;;;1.67;1.00;;;8.90;99.90;;;;;;5073113;28;20554;-62
2021/01/22 12:30:43;;;;;;;1.65;0.70;;;8.90;99.90;;;;;;5086054;28;20625;-61
2021/01/22 12:33:09;;;;;;;1.05;0.52;;;9.10;99.90;;;;;;5092198;28;20061;-61
2021/01/22 12:35:35;;;;;;;2.38;0.73;;;9.00;99.90;;;;;;5085041;28;20051;-62
2021/01/22 12:38:00;;;;;;;3.13;1.23;;;8.90;99.90;;;;;;5089666;28;20032;-61
2021/01/22 12:40:26;;;;;;;3.67;1.10;;;8.80;99.90;;;;;;5085138;28;20032;-58
2021/01/22 12:42:52;;;;;;;4.95;1.70;;;8.80;99.90;;;;;;5075734;28;20024;-59
2021/01/22 12:45:18;;;;;;;4.38;1.88;;;8.60;99.90;;;;;;5058666;28;20063;-59